Time;durP1;ratioP1;P1;durP2;ratioP2;P2;SDS_P1;SDS_P2;PMS_P1;PMS_P2;Temp;Humidity;BMP_temperature;BMP_pressure;BME280_temperature;BME280_humidity;BME280_pressure;Samples;Min_cycle;Max_cycle;Signal;HPM_P1;HPM_P2
2023/07/28 00:01:24;;;;;;;8.38;6.25;;;12.60;99.90;;;;;;25592726;23;20005;-53
2023/07/28 00:11:26;;;;;;;11.38;6.82;;;12.60;99.90;;;;;;25592663;23;20379;-56
2023/07/28 00:21:27;;;;;;;8.65;6.72;;;12.40;99.90;;;;;;25592208;23;20440;-55
2023/07/28 00:31:29;;;;;;;9.05;6.65;;;12.70;99.90;;;;;;25591502;23;20005;-51
2023/07/28 00:41:31;;;;;;;9.02;6.65;;;13.00;99.90;;;;;;25466314;23;20013;-55
2023/07/28 00:51:37;;;;;;;9.48;7.50;;;12.90;99.90;;;;;;25441528;23;20024;-56
2023/07/28 01:01:38;;;;;;;12.05;8.02;;;12.70;99.90;;;;;;25441020;23;20009;-50
2023/07/28 01:12:00;;;;;;;15.98;7.97;;;12.50;99.90;;;;;;25440770;23;20005;-55
2023/07/28 01:22:44;;;;;;;12.15;9.35;;;12.60;99.90;;;;;;25481051;23;20001;-56
2023/07/28 01:32:47;;;;;;;16.63;10.23;;;12.50;99.90;;;;;;25081063;23;20098;-55
2023/07/28 01:42:49;;;;;;;15.00;10.82;;;12.50;99.90;;;;;;25210967;23;20018;-56
2023/07/28 01:52:51;;;;;;;14.68;11.40;;;12.60;99.90;;;;;;25217435;23;20011;-54
2023/07/28 02:02:54;;;;;;;14.77;10.60;;;12.60;99.90;;;;;;25308753;23;20005;-53
2023/07/28 02:12:56;;;;;;;19.83;13.20;;;12.60;99.90;;;;;;25602471;23;20011;-52
2023/07/28 02:22:58;;;;;;;17.55;11.90;;;12.70;99.90;;;;;;25575769;23;20001;-54
2023/07/28 02:33:00;;;;;;;16.42;13.27;;;13.10;99.90;;;;;;25601836;23;20271;-55
2023/07/28 02:43:02;;;;;;;18.65;14.43;;;13.20;99.90;;;;;;25601684;23;20001;-55
2023/07/28 02:53:05;;;;;;;16.13;12.98;;;13.30;99.90;;;;;;25575314;23;20012;-46
2023/07/28 03:03:12;;;;;;;17.40;11.73;;;13.30;99.90;;;;;;25598684;23;20001;-48
2023/07/28 03:13:15;;;;;;;16.17;12.88;;;13.00;99.90;;;;;;25634379;23;20008;-56
2023/07/28 03:23:17;;;;;;;17.00;12.48;;;12.50;99.90;;;;;;25593054;23;20008;-56
2023/07/28 03:33:19;;;;;;;17.58;13.77;;;12.20;99.90;;;;;;25567476;23;20021;-55
2023/07/28 03:43:21;;;;;;;17.85;13.93;;;11.90;99.90;;;;;;25593535;23;20008;-52
2023/07/28 03:53:23;;;;;;;20.92;14.00;;;11.50;99.90;;;;;;25567276;23;20005;-54
2023/07/28 04:03:25;;;;;;;20.60;14.23;;;11.30;99.90;;;;;;25592528;23;20041;-55
2023/07/28 04:13:27;;;;;;;24.15;16.40;;;11.20;99.90;;;;;;25592065;23;20325;-54
2023/07/28 04:23:29;;;;;;;25.48;16.88;;;11.10;99.90;;;;;;25565957;23;20016;-50
2023/07/28 04:33:31;;;;;;;20.33;14.13;;;11.20;99.90;;;;;;25591436;23;20036;-55
2023/07/28 04:43:32;;;;;;;14.23;11.40;;;11.50;99.90;;;;;;25565105;23;20005;-46
2023/07/28 04:53:34;;;;;;;13.73;9.98;;;12.00;99.90;;;;;;25590922;23;20016;-55
2023/07/28 05:03:46;;;;;;;11.25;8.88;;;12.40;99.90;;;;;;25631249;23;20005;-53
2023/07/28 05:13:58;;;;;;;11.60;8.52;;;12.80;99.90;;;;;;25631174;23;20008;-55
2023/07/28 05:24:01;;;;;;;10.27;7.78;;;13.00;99.90;;;;;;25563358;23;20428;-54
2023/07/28 05:34:04;;;;;;;10.25;6.68;;;13.30;99.90;;;;;;25562663;23;20021;-53
2023/07/28 05:44:06;;;;;;;7.70;5.60;;;13.90;99.90;;;;;;25588966;23;20016;-55
2023/07/28 05:54:08;;;;;;;6.50;5.57;;;14.40;99.90;;;;;;25562867;23;20001;-56
2023/07/28 06:04:10;;;;;;;9.32;6.75;;;14.60;99.90;;;;;;25588828;23;20009;-52
2023/07/28 06:14:18;;;;;;;8.20;5.65;;;14.70;99.90;;;;;;25629797;23;20008;-54
2023/07/28 06:24:20;;;;;;;6.60;4.40;;;14.90;99.90;;;;;;25588818;23;20013;-53
2023/07/28 06:34:22;;;;;;;6.63;4.28;;;15.70;99.90;;;;;;25561857;23;20021;-54
2023/07/28 06:44:24;;;;;;;5.50;3.33;;;17.40;99.90;;;;;;25594889;23;20004;-57
2023/07/28 06:54:26;;;;;;;4.72;3.10;;;20.80;99.90;;;;;;25569053;23;20037;-58
2023/07/28 07:04:28;;;;;;;5.05;3.08;;;22.80;99.90;;;;;;25594130;23;20001;-57
2023/07/28 07:14:30;;;;;;;4.32;2.28;;;23.00;99.90;;;;;;25592663;23;20001;-57
2023/07/28 07:24:32;;;;;;;5.78;3.30;;;23.40;99.90;;;;;;25593064;23;20028;-57
2023/07/28 07:34:36;;;;;;;5.22;3.30;;;22.50;99.90;;;;;;25591930;23;20040;-56
2023/07/28 07:44:38;;;;;;;4.30;3.50;;;21.90;99.90;;;;;;25591600;23;20005;-47
2023/07/28 07:54:41;;;;;;;4.30;3.78;;;23.40;99.90;;;;;;25591695;23;20333;-57
2023/07/28 08:04:43;;;;;;;7.70;3.60;;;23.10;99.90;;;;;;25591188;23;20001;-57
2023/07/28 08:14:46;;;;;;;5.57;4.22;;;22.70;99.90;;;;;;25590774;23;20008;-47
2023/07/28 08:24:47;;;;;;;6.18;3.90;;;22.00;99.90;;;;;;25590492;23;20084;-49
2023/07/28 08:34:49;;;;;;;7.47;4.28;;;22.00;99.90;;;;;;25589819;23;20052;-56
2023/07/28 08:44:54;;;;;;;7.45;3.95;;;23.20;99.90;;;;;;25589338;23;20001;-55
2023/07/28 08:54:55;;;;;;;4.70;3.85;;;23.10;99.90;;;;;;25590512;23;20056;-57
2023/07/28 09:04:57;;;;;;;5.30;4.38;;;23.80;99.70;;;;;;25589793;23;20008;-52
2023/07/28 09:14:59;;;;;;;4.80;4.20;;;22.70;99.10;;;;;;25589387;23;20013;-56
2023/07/28 09:25:13;;;;;;;6.65;4.88;;;22.00;99.90;;;;;;25590003;23;20009;-57
2023/07/28 09:35:16;;;;;;;5.07;3.60;;;22.00;99.90;;;;;;25606296;23;20059;-57
2023/07/28 09:45:18;;;;;;;6.55;4.53;;;22.90;99.90;;;;;;25588887;23;20013;-55
2023/07/28 09:55:20;;;;;;;6.55;4.88;;;21.90;99.90;;;;;;25589160;23;20432;-56
2023/07/28 10:05:24;;;;;;;5.25;4.63;;;21.80;99.90;;;;;;25588608;23;20060;-56
2023/07/28 10:15:31;;;;;;;9.18;6.25;;;21.60;99.90;;;;;;25593624;23;20005;-46
2023/07/28 10:25:36;;;;;;;6.80;5.93;;;21.20;99.90;;;;;;25595993;23;20306;-56
2023/07/28 10:35:48;;;;;;;9.38;6.65;;;20.70;99.90;;;;;;25595654;23;20079;-56
2023/07/28 10:45:50;;;;;;;9.02;4.90;;;20.90;99.90;;;;;;25636668;23;20013;-56
2023/07/28 10:55:53;;;;;;;7.53;5.50;;;22.50;99.90;;;;;;25595624;23;20005;-56
2023/07/28 11:05:56;;;;;;;7.55;5.30;;;22.60;99.90;;;;;;25594994;23;20005;-55
2023/07/28 11:15:58;;;;;;;14.48;5.97;;;22.30;99.90;;;;;;25594648;23;20005;-50
2023/07/28 11:26:00;;;;;;;8.45;5.60;;;21.50;99.90;;;;;;25594064;23;20009;-54
2023/07/28 11:36:02;;;;;;;7.03;5.20;;;21.20;99.90;;;;;;25543158;23;20013;-54
2023/07/28 11:46:23;;;;;;;5.80;4.82;;;22.00;99.90;;;;;;25593871;23;20008;-54
2023/07/28 11:56:29;;;;;;;6.53;4.35;;;22.00;99.90;;;;;;25593478;23;20001;-55
2023/07/28 12:06:31;;;;;;;6.90;4.50;;;22.30;99.90;;;;;;25594027;23;20009;-56
2023/07/28 12:16:48;;;;;;;5.13;3.00;;;22.50;99.90;;;;;;25592403;23;20009;-56
2023/07/28 12:26:51;;;;;;;6.70;4.45;;;22.60;99.90;;;;;;25633042;23;20033;-55
2023/07/28 12:36:53;;;;;;;6.90;4.15;;;22.60;99.70;;;;;;25590363;23;20017;-54
2023/07/28 12:46:54;;;;;;;5.45;4.35;;;22.60;99.90;;;;;;25590418;23;20009;-55
2023/07/28 12:56:56;;;;;;;6.13;4.78;;;21.90;99.90;;;;;;25563590;23;20009;-56
2023/07/28 13:06:58;;;;;;;8.70;4.60;;;21.50;99.90;;;;;;25589914;23;20001;-55
2023/07/28 13:17:00;;;;;;;9.52;5.10;;;21.70;99.90;;;;;;25538394;23;20016;-56
2023/07/28 13:27:02;;;;;;;6.78;5.75;;;21.30;99.90;;;;;;25563429;23;20059;-56
2023/07/28 13:37:05;;;;;;;8.68;5.90;;;21.00;99.90;;;;;;25588734;23;20063;-56
2023/07/28 13:47:06;;;;;;;6.32;5.20;;;20.70;99.90;;;;;;25587685;23;20079;-56
2023/07/28 13:57:08;;;;;;;9.93;6.70;;;20.90;99.90;;;;;;25588923;23;20012;-55
2023/07/28 14:07:10;;;;;;;8.18;6.38;;;21.20;99.90;;;;;;25589461;23;20055;-56
2023/07/28 14:17:12;;;;;;;8.80;7.45;;;21.20;99.90;;;;;;25588053;23;20012;-56
2023/07/28 14:27:14;;;;;;;10.05;8.05;;;20.90;99.90;;;;;;25589925;23;20005;-54
2023/07/28 14:37:16;;;;;;;9.18;7.95;;;20.50;99.90;;;;;;25587531;23;20071;-55
2023/07/28 14:47:18;;;;;;;8.68;7.68;;;20.30;99.90;;;;;;25587804;23;20001;-56
2023/07/28 14:57:20;;;;;;;10.18;7.47;;;20.60;99.90;;;;;;25588687;23;20150;-56
2023/07/28 15:07:22;;;;;;;9.90;7.15;;;20.80;99.90;;;;;;25595222;23;20084;-56
2023/07/28 15:17:24;;;;;;;8.10;7.25;;;20.60;99.90;;;;;;25594803;23;20328;-56
2023/07/28 15:27:26;;;;;;;10.45;8.80;;;20.70;99.90;;;;;;25594475;23;20009;-56
2023/07/28 15:37:29;;;;;;;10.15;8.65;;;20.60;99.90;;;;;;25594209;23;20017;-56
2023/07/28 15:47:35;;;;;;;12.20;7.82;;;20.10;99.90;;;;;;25593501;23;20023;-55
2023/07/28 15:57:38;;;;;;;11.25;9.15;;;20.20;99.90;;;;;;25634433;23;20053;-55
2023/07/28 16:07:40;;;;;;;13.93;9.40;;;19.60;99.90;;;;;;25592247;23;20012;-56
2023/07/28 16:17:42;;;;;;;11.00;9.23;;;19.50;99.90;;;;;;25592211;23;20009;-56
2023/07/28 16:27:43;;;;;;;11.35;8.93;;;19.60;99.90;;;;;;25591494;23;20005;-56
2023/07/28 16:37:45;;;;;;;14.93;9.70;;;19.70;99.90;;;;;;25591067;23;20040;-55
2023/07/28 16:47:47;;;;;;;10.63;8.75;;;19.60;99.90;;;;;;25590900;23;20056;-56
2023/07/28 16:57:50;;;;;;;12.18;9.90;;;19.80;99.90;;;;;;25590495;23;20372;-51
2023/07/28 17:07:52;;;;;;;11.65;9.60;;;19.50;99.90;;;;;;25563825;23;20005;-56
2023/07/28 17:17:54;;;;;;;15.77;10.13;;;18.80;99.90;;;;;;25590333;23;20004;-57
2023/07/28 17:27:56;;;;;;;13.95;11.05;;;18.30;99.90;;;;;;25589594;23;20005;-57
2023/07/28 17:37:58;;;;;;;14.82;11.38;;;17.90;99.90;;;;;;25590049;23;20012;-56
2023/07/28 17:48:00;;;;;;;13.68;11.95;;;17.60;99.90;;;;;;25537569;23;20075;-57
2023/07/28 17:58:02;;;;;;;17.27;13.32;;;17.00;99.90;;;;;;25589309;23;20009;-57
2023/07/28 18:08:11;;;;;;;15.52;13.13;;;16.70;99.90;;;;;;25588603;23;20067;-57
2023/07/28 18:18:13;;;;;;;17.63;12.27;;;16.50;99.90;;;;;;25629879;23;20435;-57
2023/07/28 18:28:15;;;;;;;22.80;19.23;;;16.10;99.90;;;;;;25562211;23;20006;-56
2023/07/28 18:38:17;;;;;;;14.45;12.88;;;15.70;99.90;;;;;;25593868;23;20080;-57
2023/07/28 18:48:20;;;;;;;17.50;12.80;;;15.20;99.90;;;;;;25595855;23;20360;-46
2023/07/28 18:58:22;;;;;;;12.02;10.73;;;15.00;99.90;;;;;;25595715;23;20016;-50
2023/07/28 19:08:24;;;;;;;15.07;11.18;;;15.00;99.90;;;;;;25595058;23;20009;-45
2023/07/28 19:18:26;;;;;;;10.10;7.70;;;14.80;99.90;;;;;;25594513;23;20510;-47
2023/07/28 19:28:27;;;;;;;22.77;15.98;;;14.60;99.90;;;;;;25594305;23;20012;-56
2023/07/28 19:38:29;;;;;;;12.65;9.02;;;14.70;99.90;;;;;;25593825;23;20080;-45
2023/07/28 19:48:31;;;;;;;10.55;6.85;;;14.50;99.90;;;;;;25593289;23;20009;-56
2023/07/28 19:58:34;;;;;;;9.50;7.13;;;15.20;99.90;;;;;;25566301;23;20012;-55
2023/07/28 20:08:37;;;;;;;10.40;8.60;;;15.40;99.90;;;;;;25592542;23;20332;-56
2023/07/28 20:18:39;;;;;;;12.98;8.65;;;15.20;99.90;;;;;;25592472;23;20016;-55
2023/07/28 20:28:41;;;;;;;9.55;7.18;;;15.00;99.90;;;;;;25591862;23;20012;-46
2023/07/28 20:38:43;;;;;;;9.52;7.68;;;14.80;99.90;;;;;;25591447;23;20017;-54
2023/07/28 20:48:45;;;;;;;14.55;10.70;;;14.60;99.90;;;;;;25590992;23;20064;-55
2023/07/28 20:58:47;;;;;;;17.67;12.18;;;14.50;99.90;;;;;;25589910;23;20032;-47
2023/07/28 21:08:49;;;;;;;16.30;13.77;;;14.40;99.90;;;;;;25589354;23;20032;-53
2023/07/28 21:18:50;;;;;;;22.40;15.63;;;14.00;99.90;;;;;;25590030;23;20016;-54
2023/07/28 21:28:52;;;;;;;18.40;13.80;;;13.80;99.90;;;;;;25589539;23;20016;-52
2023/07/28 21:38:54;;;;;;;21.35;15.65;;;13.80;99.90;;;;;;25562701;23;20021;-56
2023/07/28 21:48:57;;;;;;;23.48;15.20;;;14.00;99.90;;;;;;25588927;23;20028;-53
2023/07/28 21:58:59;;;;;;;17.77;13.48;;;14.10;99.90;;;;;;25590929;23;20376;-54
2023/07/28 22:09:02;;;;;;;16.15;12.73;;;13.90;99.90;;;;;;25592440;23;20013;-54
2023/07/28 22:19:04;;;;;;;17.27;13.77;;;13.90;99.90;;;;;;25597301;23;20067;-54
2023/07/28 22:29:06;;;;;;;20.30;14.85;;;13.80;99.90;;;;;;25596767;23;20005;-54
2023/07/28 22:39:08;;;;;;;22.30;14.85;;;13.60;99.90;;;;;;25596123;23;20024;-55
2023/07/28 22:49:10;;;;;;;15.43;13.00;;;13.40;99.90;;;;;;25596097;23;20506;-56
2023/07/28 22:59:11;;;;;;;17.20;12.20;;;13.30;99.90;;;;;;25595488;23;20005;-53
2023/07/28 23:09:14;;;;;;;16.70;13.57;;;13.10;99.90;;;;;;25595392;23;20008;-53
2023/07/28 23:19:16;;;;;;;16.65;12.73;;;13.00;99.90;;;;;;25594363;23;20009;-55
2023/07/28 23:29:18;;;;;;;22.85;15.02;;;12.90;99.90;;;;;;25594483;23;20059;-52
2023/07/28 23:39:20;;;;;;;24.40;17.13;;;12.80;99.90;;;;;;25594119;23;20009;-51
2023/07/28 23:49:22;;;;;;;23.33;17.58;;;12.70;99.90;;;;;;25593546;23;20310;-50
2023/07/28 23:59:24;;;;;;;23.55;15.02;;;12.70;99.90;;;;;;25593479;23;20019;-51
